sensor_id;sensor_type;location;lat;lon;timestamp;P1;durP1;ratioP1;P2;durP2;ratioP2
78740;SDS011;68062;48.726;9.370;2023-12-07T00:00:39;12.33;;;9.90;;
78740;SDS011;68062;48.726;9.370;2023-12-07T00:03:07;12.03;;;9.30;;
78740;SDS011;68062;48.726;9.370;2023-12-07T00:05:37;15.87;;;10.90;;
78740;SDS011;68062;48.726;9.370;2023-12-07T00:08:05;19.00;;;10.60;;
78740;SDS011;68062;48.726;9.370;2023-12-07T00:10:32;14.93;;;10.27;;
78740;SDS011;68062;48.726;9.370;2023-12-07T00:13:01;13.23;;;10.13;;
78740;SDS011;68062;48.726;9.370;2023-12-07T00:15:29;14.50;;;9.83;;
78740;SDS011;68062;48.726;9.370;2023-12-07T00:17:57;13.97;;;10.97;;
78740;SDS011;68062;48.726;9.370;2023-12-07T00:20:26;15.13;;;9.33;;
78740;SDS011;68062;48.726;9.370;2023-12-07T00:22:56;13.60;;;9.83;;
78740;SDS011;68062;48.726;9.370;2023-12-07T00:25:24;13.60;;;10.30;;
78740;SDS011;68062;48.726;9.370;2023-12-07T00:27:52;16.10;;;10.83;;
78740;SDS011;68062;48.726;9.370;2023-12-07T00:30:20;13.27;;;9.70;;
78740;SDS011;68062;48.726;9.370;2023-12-07T00:32:48;17.90;;;11.10;;
78740;SDS011;68062;48.726;9.370;2023-12-07T00:35:17;11.87;;;9.10;;
78740;SDS011;68062;48.726;9.370;2023-12-07T00:37:48;13.00;;;9.80;;
78740;SDS011;68062;48.726;9.370;2023-12-07T00:40:18;15.77;;;9.93;;
78740;SDS011;68062;48.726;9.370;2023-12-07T00:42:46;15.33;;;11.50;;
78740;SDS011;68062;48.726;9.370;2023-12-07T00:45:14;13.23;;;11.23;;
78740;SDS011;68062;48.726;9.370;2023-12-07T00:47:42;16.03;;;11.03;;
78740;SDS011;68062;48.726;9.370;2023-12-07T00:50:11;16.00;;;11.63;;
78740;SDS011;68062;48.726;9.370;2023-12-07T00:52:40;14.50;;;10.93;;
78740;SDS011;68062;48.726;9.370;2023-12-07T00:55:09;15.43;;;11.50;;
78740;SDS011;68062;48.726;9.370;2023-12-07T00:57:39;14.83;;;11.60;;
78740;SDS011;68062;48.726;9.370;2023-12-07T01:00:08;15.97;;;12.13;;
78740;SDS011;68062;48.726;9.370;2023-12-07T01:02:37;16.70;;;10.90;;
78740;SDS011;68062;48.726;9.370;2023-12-07T01:05:05;14.50;;;11.03;;
78740;SDS011;68062;48.726;9.370;2023-12-07T01:07:35;16.30;;;11.80;;
78740;SDS011;68062;48.726;9.370;2023-12-07T01:10:03;15.83;;;11.50;;
78740;SDS011;68062;48.726;9.370;2023-12-07T01:12:32;16.13;;;10.97;;
78740;SDS011;68062;48.726;9.370;2023-12-07T01:15:04;16.77;;;11.87;;
78740;SDS011;68062;48.726;9.370;2023-12-07T01:17:32;15.80;;;13.03;;
78740;SDS011;68062;48.726;9.370;2023-12-07T01:20:00;16.40;;;12.83;;
78740;SDS011;68062;48.726;9.370;2023-12-07T01:22:30;17.63;;;13.37;;
78740;SDS011;68062;48.726;9.370;2023-12-07T01:24:58;18.77;;;12.20;;
78740;SDS011;68062;48.726;9.370;2023-12-07T01:27:26;18.60;;;12.70;;
78740;SDS011;68062;48.726;9.370;2023-12-07T01:29:54;18.57;;;12.73;;
78740;SDS011;68062;48.726;9.370;2023-12-07T01:32:23;16.33;;;12.60;;
78740;SDS011;68062;48.726;9.370;2023-12-07T01:34:52;21.57;;;13.00;;
78740;SDS011;68062;48.726;9.370;2023-12-07T01:37:20;17.53;;;12.10;;
78740;SDS011;68062;48.726;9.370;2023-12-07T01:39:48;18.93;;;13.20;;
78740;SDS011;68062;48.726;9.370;2023-12-07T01:42:17;13.70;;;11.17;;
78740;SDS011;68062;48.726;9.370;2023-12-07T01:44:45;20.30;;;12.80;;
78740;SDS011;68062;48.726;9.370;2023-12-07T01:47:13;15.03;;;11.30;;
78740;SDS011;68062;48.726;9.370;2023-12-07T01:49:43;20.33;;;13.07;;
78740;SDS011;68062;48.726;9.370;2023-12-07T01:52:12;16.30;;;12.50;;
78740;SDS011;68062;48.726;9.370;2023-12-07T01:54:40;19.33;;;12.37;;
78740;SDS011;68062;48.726;9.370;2023-12-07T01:57:09;16.20;;;12.40;;
78740;SDS011;68062;48.726;9.370;2023-12-07T01:59:37;18.83;;;12.70;;
78740;SDS011;68062;48.726;9.370;2023-12-07T02:02:05;27.83;;;12.77;;
78740;SDS011;68062;48.726;9.370;2023-12-07T02:04:34;17.40;;;11.73;;
78740;SDS011;68062;48.726;9.370;2023-12-07T02:07:04;15.03;;;11.77;;
78740;SDS011;68062;48.726;9.370;2023-12-07T02:09:32;19.07;;;12.43;;
78740;SDS011;68062;48.726;9.370;2023-12-07T02:12:00;15.63;;;11.97;;
78740;SDS011;68062;48.726;9.370;2023-12-07T02:14:28;16.10;;;12.03;;
78740;SDS011;68062;48.726;9.370;2023-12-07T02:16:57;19.67;;;12.60;;
78740;SDS011;68062;48.726;9.370;2023-12-07T02:19:39;15.73;;;11.73;;
78740;SDS011;68062;48.726;9.370;2023-12-07T02:22:26;17.80;;;13.07;;
78740;SDS011;68062;48.726;9.370;2023-12-07T02:25:06;18.37;;;13.00;;
78740;SDS011;68062;48.726;9.370;2023-12-07T02:27:37;18.20;;;12.57;;
78740;SDS011;68062;48.726;9.370;2023-12-07T02:30:06;21.47;;;13.70;;
78740;SDS011;68062;48.726;9.370;2023-12-07T02:32:36;16.50;;;12.50;;
78740;SDS011;68062;48.726;9.370;2023-12-07T02:35:04;16.07;;;12.20;;
78740;SDS011;68062;48.726;9.370;2023-12-07T02:37:35;19.47;;;12.07;;
78740;SDS011;68062;48.726;9.370;2023-12-07T02:40:08;18.07;;;12.67;;
78740;SDS011;68062;48.726;9.370;2023-12-07T02:42:39;16.30;;;12.53;;
78740;SDS011;68062;48.726;9.370;2023-12-07T02:45:09;16.23;;;12.23;;
78740;SDS011;68062;48.726;9.370;2023-12-07T02:47:37;16.50;;;12.10;;
78740;SDS011;68062;48.726;9.370;2023-12-07T02:50:06;18.83;;;13.03;;
78740;SDS011;68062;48.726;9.370;2023-12-07T02:52:35;16.70;;;11.10;;
78740;SDS011;68062;48.726;9.370;2023-12-07T02:55:04;16.03;;;12.60;;
78740;SDS011;68062;48.726;9.370;2023-12-07T02:57:33;19.60;;;11.93;;
78740;SDS011;68062;48.726;9.370;2023-12-07T03:00:02;17.10;;;11.97;;
78740;SDS011;68062;48.726;9.370;2023-12-07T03:02:33;18.60;;;13.33;;
78740;SDS011;68062;48.726;9.370;2023-12-07T03:05:01;15.07;;;12.03;;
78740;SDS011;68062;48.726;9.370;2023-12-07T03:07:29;14.63;;;11.80;;
78740;SDS011;68062;48.726;9.370;2023-12-07T03:09:58;19.23;;;12.90;;
78740;SDS011;68062;48.726;9.370;2023-12-07T03:12:26;17.10;;;11.70;;
78740;SDS011;68062;48.726;9.370;2023-12-07T03:14:54;14.53;;;11.53;;
78740;SDS011;68062;48.726;9.370;2023-12-07T03:17:23;15.93;;;11.40;;
78740;SDS011;68062;48.726;9.370;2023-12-07T03:19:51;16.80;;;11.27;;
78740;SDS011;68062;48.726;9.370;2023-12-07T03:22:19;17.80;;;13.27;;
78740;SDS011;68062;48.726;9.370;2023-12-07T03:24:50;16.20;;;12.23;;
78740;SDS011;68062;48.726;9.370;2023-12-07T03:27:19;18.57;;;14.53;;
78740;SDS011;68062;48.726;9.370;2023-12-07T03:29:47;15.80;;;12.00;;
78740;SDS011;68062;48.726;9.370;2023-12-07T03:32:15;15.80;;;12.20;;
78740;SDS011;68062;48.726;9.370;2023-12-07T03:34:45;17.40;;;12.50;;
78740;SDS011;68062;48.726;9.370;2023-12-07T03:37:13;19.63;;;12.60;;
78740;SDS011;68062;48.726;9.370;2023-12-07T03:39:41;18.53;;;12.43;;
78740;SDS011;68062;48.726;9.370;2023-12-07T03:42:09;17.60;;;11.83;;
78740;SDS011;68062;48.726;9.370;2023-12-07T03:44:57;16.93;;;11.13;;
78740;SDS011;68062;48.726;9.370;2023-12-07T03:47:24;17.70;;;13.00;;
78740;SDS011;68062;48.726;9.370;2023-12-07T03:49:54;18.40;;;12.70;;
78740;SDS011;68062;48.726;9.370;2023-12-07T03:52:23;23.20;;;13.70;;
78740;SDS011;68062;48.726;9.370;2023-12-07T03:54:51;16.80;;;11.97;;
78740;SDS011;68062;48.726;9.370;2023-12-07T03:57:19;20.23;;;14.63;;
78740;SDS011;68062;48.726;9.370;2023-12-07T03:59:48;20.80;;;14.07;;
78740;SDS011;68062;48.726;9.370;2023-12-07T04:02:16;17.83;;;13.40;;
78740;SDS011;68062;48.726;9.370;2023-12-07T04:04:44;20.90;;;12.10;;
78740;SDS011;68062;48.726;9.370;2023-12-07T04:07:13;17.03;;;13.03;;
78740;SDS011;68062;48.726;9.370;2023-12-07T04:09:42;16.43;;;11.70;;
78740;SDS011;68062;48.726;9.370;2023-12-07T04:12:10;18.77;;;13.80;;
78740;SDS011;68062;48.726;9.370;2023-12-07T04:14:38;17.23;;;12.50;;
78740;SDS011;68062;48.726;9.370;2023-12-07T04:17:05;20.00;;;13.77;;
78740;SDS011;68062;48.726;9.370;2023-12-07T04:19:33;27.80;;;13.23;;
78740;SDS011;68062;48.726;9.370;2023-12-07T04:22:02;19.73;;;13.20;;
78740;SDS011;68062;48.726;9.370;2023-12-07T04:24:32;18.00;;;12.93;;
78740;SDS011;68062;48.726;9.370;2023-12-07T04:27:00;19.63;;;14.10;;
78740;SDS011;68062;48.726;9.370;2023-12-07T04:29:28;18.67;;;12.57;;
78740;SDS011;68062;48.726;9.370;2023-12-07T04:31:56;20.23;;;13.07;;
78740;SDS011;68062;48.726;9.370;2023-12-07T04:34:23;18.40;;;12.40;;
78740;SDS011;68062;48.726;9.370;2023-12-07T04:36:51;20.77;;;13.50;;
78740;SDS011;68062;48.726;9.370;2023-12-07T04:39:19;17.20;;;12.47;;
78740;SDS011;68062;48.726;9.370;2023-12-07T04:41:48;22.17;;;13.10;;
78740;SDS011;68062;48.726;9.370;2023-12-07T04:44:16;20.43;;;13.50;;
78740;SDS011;68062;48.726;9.370;2023-12-07T04:46:44;21.30;;;13.27;;
78740;SDS011;68062;48.726;9.370;2023-12-07T04:49:12;20.67;;;13.97;;
78740;SDS011;68062;48.726;9.370;2023-12-07T04:51:40;18.33;;;13.00;;
78740;SDS011;68062;48.726;9.370;2023-12-07T04:54:12;19.37;;;13.47;;
78740;SDS011;68062;48.726;9.370;2023-12-07T04:56:45;19.73;;;13.53;;
78740;SDS011;68062;48.726;9.370;2023-12-07T04:59:15;20.90;;;15.00;;
78740;SDS011;68062;48.726;9.370;2023-12-07T05:01:42;20.93;;;13.50;;
78740;SDS011;68062;48.726;9.370;2023-12-07T05:04:10;18.63;;;13.90;;
78740;SDS011;68062;48.726;9.370;2023-12-07T05:06:39;19.40;;;14.67;;
78740;SDS011;68062;48.726;9.370;2023-12-07T05:09:07;20.57;;;14.60;;
78740;SDS011;68062;48.726;9.370;2023-12-07T05:11:37;20.60;;;14.10;;
78740;SDS011;68062;48.726;9.370;2023-12-07T05:14:05;19.93;;;14.30;;
78740;SDS011;68062;48.726;9.370;2023-12-07T05:16:34;17.87;;;13.20;;
78740;SDS011;68062;48.726;9.370;2023-12-07T05:19:02;22.40;;;15.67;;
78740;SDS011;68062;48.726;9.370;2023-12-07T05:21:31;20.83;;;14.23;;
78740;SDS011;68062;48.726;9.370;2023-12-07T05:23:59;18.93;;;14.40;;
78740;SDS011;68062;48.726;9.370;2023-12-07T05:26:27;20.70;;;13.60;;
78740;SDS011;68062;48.726;9.370;2023-12-07T05:28:59;16.03;;;13.30;;
78740;SDS011;68062;48.726;9.370;2023-12-07T05:31:27;16.23;;;12.70;;
78740;SDS011;68062;48.726;9.370;2023-12-07T05:33:57;20.20;;;13.30;;
78740;SDS011;68062;48.726;9.370;2023-12-07T05:36:25;18.20;;;12.57;;
78740;SDS011;68062;48.726;9.370;2023-12-07T05:38:53;18.20;;;13.67;;
78740;SDS011;68062;48.726;9.370;2023-12-07T05:41:21;20.43;;;13.80;;
78740;SDS011;68062;48.726;9.370;2023-12-07T05:43:49;32.60;;;19.73;;
78740;SDS011;68062;48.726;9.370;2023-12-07T05:46:17;21.80;;;14.23;;
78740;SDS011;68062;48.726;9.370;2023-12-07T05:48:45;19.63;;;14.87;;
78740;SDS011;68062;48.726;9.370;2023-12-07T05:51:16;21.00;;;15.30;;
78740;SDS011;68062;48.726;9.370;2023-12-07T05:53:44;27.47;;;17.67;;
78740;SDS011;68062;48.726;9.370;2023-12-07T05:56:17;26.40;;;16.73;;
78740;SDS011;68062;48.726;9.370;2023-12-07T05:58:46;21.63;;;16.13;;
78740;SDS011;68062;48.726;9.370;2023-12-07T06:01:16;16.70;;;12.90;;
78740;SDS011;68062;48.726;9.370;2023-12-07T06:03:46;22.03;;;13.90;;
78740;SDS011;68062;48.726;9.370;2023-12-07T06:06:13;19.57;;;14.10;;
78740;SDS011;68062;48.726;9.370;2023-12-07T06:08:43;22.17;;;15.00;;
78740;SDS011;68062;48.726;9.370;2023-12-07T06:11:11;19.30;;;14.20;;
78740;SDS011;68062;48.726;9.370;2023-12-07T06:13:40;18.53;;;13.47;;
78740;SDS011;68062;48.726;9.370;2023-12-07T06:16:11;19.73;;;14.00;;
78740;SDS011;68062;48.726;9.370;2023-12-07T06:18:40;20.03;;;14.30;;
78740;SDS011;68062;48.726;9.370;2023-12-07T06:21:08;20.23;;;13.67;;
78740;SDS011;68062;48.726;9.370;2023-12-07T06:23:36;23.17;;;13.50;;
78740;SDS011;68062;48.726;9.370;2023-12-07T06:26:05;22.80;;;13.87;;
78740;SDS011;68062;48.726;9.370;2023-12-07T06:28:33;20.87;;;13.43;;
78740;SDS011;68062;48.726;9.370;2023-12-07T06:31:04;19.00;;;14.17;;
78740;SDS011;68062;48.726;9.370;2023-12-07T06:33:33;23.43;;;13.43;;
78740;SDS011;68062;48.726;9.370;2023-12-07T06:36:02;22.60;;;13.90;;
78740;SDS011;68062;48.726;9.370;2023-12-07T06:38:33;21.13;;;13.33;;
78740;SDS011;68062;48.726;9.370;2023-12-07T06:41:01;21.80;;;13.80;;
78740;SDS011;68062;48.726;9.370;2023-12-07T06:43:31;22.63;;;14.53;;
78740;SDS011;68062;48.726;9.370;2023-12-07T06:45:59;25.07;;;15.20;;
78740;SDS011;68062;48.726;9.370;2023-12-07T06:48:27;22.37;;;13.47;;
78740;SDS011;68062;48.726;9.370;2023-12-07T06:50:55;22.60;;;13.40;;
78740;SDS011;68062;48.726;9.370;2023-12-07T06:53:24;19.17;;;13.60;;
78740;SDS011;68062;48.726;9.370;2023-12-07T06:55:51;21.83;;;14.43;;
78740;SDS011;68062;48.726;9.370;2023-12-07T06:58:19;21.73;;;13.30;;
78740;SDS011;68062;48.726;9.370;2023-12-07T07:00:49;22.33;;;12.80;;
78740;SDS011;68062;48.726;9.370;2023-12-07T07:03:17;16.17;;;13.10;;
78740;SDS011;68062;48.726;9.370;2023-12-07T07:05:45;24.63;;;14.10;;
78740;SDS011;68062;48.726;9.370;2023-12-07T07:08:12;20.83;;;13.27;;
78740;SDS011;68062;48.726;9.370;2023-12-07T07:10:41;20.07;;;13.57;;
78740;SDS011;68062;48.726;9.370;2023-12-07T07:13:09;22.33;;;12.70;;
78740;SDS011;68062;48.726;9.370;2023-12-07T07:15:37;17.63;;;12.73;;
78740;SDS011;68062;48.726;9.370;2023-12-07T07:18:06;22.13;;;13.80;;
78740;SDS011;68062;48.726;9.370;2023-12-07T07:20:35;24.60;;;16.40;;
78740;SDS011;68062;48.726;9.370;2023-12-07T07:23:03;25.83;;;15.07;;
78740;SDS011;68062;48.726;9.370;2023-12-07T07:25:31;25.57;;;15.17;;
78740;SDS011;68062;48.726;9.370;2023-12-07T07:27:59;25.30;;;15.17;;
78740;SDS011;68062;48.726;9.370;2023-12-07T07:30:27;21.73;;;14.23;;
78740;SDS011;68062;48.726;9.370;2023-12-07T07:32:55;27.60;;;15.40;;
78740;SDS011;68062;48.726;9.370;2023-12-07T07:35:24;26.97;;;14.60;;
78740;SDS011;68062;48.726;9.370;2023-12-07T07:37:54;23.23;;;17.70;;
78740;SDS011;68062;48.726;9.370;2023-12-07T07:40:22;24.17;;;15.80;;
78740;SDS011;68062;48.726;9.370;2023-12-07T07:42:52;28.43;;;16.00;;
78740;SDS011;68062;48.726;9.370;2023-12-07T07:45:20;30.33;;;17.70;;
78740;SDS011;68062;48.726;9.370;2023-12-07T07:47:48;22.90;;;16.87;;
78740;SDS011;68062;48.726;9.370;2023-12-07T07:50:16;28.30;;;16.20;;
78740;SDS011;68062;48.726;9.370;2023-12-07T07:52:45;29.83;;;17.60;;
78740;SDS011;68062;48.726;9.370;2023-12-07T07:55:13;25.53;;;18.37;;
78740;SDS011;68062;48.726;9.370;2023-12-07T07:57:42;24.43;;;16.37;;
78740;SDS011;68062;48.726;9.370;2023-12-07T08:00:10;21.50;;;14.93;;
78740;SDS011;68062;48.726;9.370;2023-12-07T08:02:40;22.93;;;15.47;;
78740;SDS011;68062;48.726;9.370;2023-12-07T08:05:08;22.47;;;16.30;;
78740;SDS011;68062;48.726;9.370;2023-12-07T08:07:39;21.43;;;16.00;;
78740;SDS011;68062;48.726;9.370;2023-12-07T08:10:09;23.50;;;17.33;;
78740;SDS011;68062;48.726;9.370;2023-12-07T08:12:39;26.37;;;16.17;;
78740;SDS011;68062;48.726;9.370;2023-12-07T08:15:07;28.27;;;19.30;;
78740;SDS011;68062;48.726;9.370;2023-12-07T08:17:37;22.00;;;17.57;;
78740;SDS011;68062;48.726;9.370;2023-12-07T08:20:07;26.47;;;17.23;;
78740;SDS011;68062;48.726;9.370;2023-12-07T08:22:37;25.67;;;16.80;;
78740;SDS011;68062;48.726;9.370;2023-12-07T08:25:06;27.93;;;17.23;;
78740;SDS011;68062;48.726;9.370;2023-12-07T08:27:39;22.77;;;14.80;;
78740;SDS011;68062;48.726;9.370;2023-12-07T08:30:08;22.47;;;16.37;;
78740;SDS011;68062;48.726;9.370;2023-12-07T08:32:37;21.50;;;14.47;;
78740;SDS011;68062;48.726;9.370;2023-12-07T08:35:05;21.57;;;14.03;;
78740;SDS011;68062;48.726;9.370;2023-12-07T08:37:33;21.97;;;15.50;;
78740;SDS011;68062;48.726;9.370;2023-12-07T08:40:05;19.57;;;14.27;;
78740;SDS011;68062;48.726;9.370;2023-12-07T08:42:33;18.70;;;13.47;;
78740;SDS011;68062;48.726;9.370;2023-12-07T08:45:03;16.40;;;12.60;;
78740;SDS011;68062;48.726;9.370;2023-12-07T08:47:31;20.77;;;13.37;;
78740;SDS011;68062;48.726;9.370;2023-12-07T08:49:59;19.50;;;14.37;;
78740;SDS011;68062;48.726;9.370;2023-12-07T08:52:30;17.57;;;12.90;;
78740;SDS011;68062;48.726;9.370;2023-12-07T08:55:13;20.27;;;14.07;;
78740;SDS011;68062;48.726;9.370;2023-12-07T08:57:43;20.57;;;13.57;;
78740;SDS011;68062;48.726;9.370;2023-12-07T09:00:13;18.83;;;14.27;;
78740;SDS011;68062;48.726;9.370;2023-12-07T09:02:41;17.03;;;13.53;;
78740;SDS011;68062;48.726;9.370;2023-12-07T09:05:13;19.50;;;14.00;;
78740;SDS011;68062;48.726;9.370;2023-12-07T09:07:42;24.47;;;15.10;;
78740;SDS011;68062;48.726;9.370;2023-12-07T09:10:10;20.70;;;13.93;;
78740;SDS011;68062;48.726;9.370;2023-12-07T09:12:38;21.50;;;14.77;;
78740;SDS011;68062;48.726;9.370;2023-12-07T09:15:06;19.00;;;15.40;;
78740;SDS011;68062;48.726;9.370;2023-12-07T09:17:38;22.80;;;14.43;;
78740;SDS011;68062;48.726;9.370;2023-12-07T09:20:07;19.93;;;14.80;;
78740;SDS011;68062;48.726;9.370;2023-12-07T09:22:40;18.83;;;14.40;;
78740;SDS011;68062;48.726;9.370;2023-12-07T09:25:10;25.00;;;14.27;;
78740;SDS011;68062;48.726;9.370;2023-12-07T09:27:38;16.40;;;12.73;;
78740;SDS011;68062;48.726;9.370;2023-12-07T09:30:07;17.50;;;13.40;;
78740;SDS011;68062;48.726;9.370;2023-12-07T09:32:40;16.00;;;13.00;;
78740;SDS011;68062;48.726;9.370;2023-12-07T09:35:11;17.43;;;13.40;;
78740;SDS011;68062;48.726;9.370;2023-12-07T09:37:42;18.33;;;13.60;;
78740;SDS011;68062;48.726;9.370;2023-12-07T09:40:14;19.50;;;13.90;;
78740;SDS011;68062;48.726;9.370;2023-12-07T09:42:45;16.63;;;13.13;;
78740;SDS011;68062;48.726;9.370;2023-12-07T09:45:14;20.93;;;14.30;;
78740;SDS011;68062;48.726;9.370;2023-12-07T09:47:47;14.17;;;11.77;;
78740;SDS011;68062;48.726;9.370;2023-12-07T09:50:18;15.40;;;13.00;;
78740;SDS011;68062;48.726;9.370;2023-12-07T09:52:49;14.00;;;12.00;;
78740;SDS011;68062;48.726;9.370;2023-12-07T09:55:33;15.20;;;11.43;;
78740;SDS011;68062;48.726;9.370;2023-12-07T09:58:03;11.73;;;10.90;;
78740;SDS011;68062;48.726;9.370;2023-12-07T10:00:33;14.03;;;12.13;;
78740;SDS011;68062;48.726;9.370;2023-12-07T10:03:03;12.87;;;11.63;;
78740;SDS011;68062;48.726;9.370;2023-12-07T10:05:43;11.10;;;9.70;;
78740;SDS011;68062;48.726;9.370;2023-12-07T10:08:30;14.43;;;10.60;;
78740;SDS011;68062;48.726;9.370;2023-12-07T10:11:06;10.83;;;10.20;;
78740;SDS011;68062;48.726;9.370;2023-12-07T10:13:35;11.37;;;10.10;;
78740;SDS011;68062;48.726;9.370;2023-12-07T10:16:05;11.60;;;10.30;;
78740;SDS011;68062;48.726;9.370;2023-12-07T10:18:39;11.07;;;10.30;;
78740;SDS011;68062;48.726;9.370;2023-12-07T10:21:10;10.40;;;9.87;;
78740;SDS011;68062;48.726;9.370;2023-12-07T10:23:40;15.17;;;11.27;;
78740;SDS011;68062;48.726;9.370;2023-12-07T10:26:13;13.43;;;11.80;;
78740;SDS011;68062;48.726;9.370;2023-12-07T10:28:45;12.80;;;11.00;;
78740;SDS011;68062;48.726;9.370;2023-12-07T10:31:17;10.30;;;9.80;;
78740;SDS011;68062;48.726;9.370;2023-12-07T10:33:48;13.13;;;9.30;;
78740;SDS011;68062;48.726;9.370;2023-12-07T10:36:17;14.37;;;9.77;;
78740;SDS011;68062;48.726;9.370;2023-12-07T10:38:44;11.97;;;10.80;;
78740;SDS011;68062;48.726;9.370;2023-12-07T10:41:13;10.90;;;10.37;;
78740;SDS011;68062;48.726;9.370;2023-12-07T10:43:43;11.53;;;9.90;;
78740;SDS011;68062;48.726;9.370;2023-12-07T10:46:15;12.20;;;9.60;;
78740;SDS011;68062;48.726;9.370;2023-12-07T10:48:44;11.30;;;10.70;;
78740;SDS011;68062;48.726;9.370;2023-12-07T10:51:17;11.53;;;10.93;;
78740;SDS011;68062;48.726;9.370;2023-12-07T10:53:50;10.50;;;9.43;;
78740;SDS011;68062;48.726;9.370;2023-12-07T10:56:22;10.77;;;9.80;;
78740;SDS011;68062;48.726;9.370;2023-12-07T10:58:55;12.70;;;9.50;;
78740;SDS011;68062;48.726;9.370;2023-12-07T11:01:25;15.83;;;10.47;;
78740;SDS011;68062;48.726;9.370;2023-12-07T11:03:53;15.27;;;10.17;;
78740;SDS011;68062;48.726;9.370;2023-12-07T11:06:24;12.73;;;10.97;;
78740;SDS011;68062;48.726;9.370;2023-12-07T11:08:54;13.67;;;10.47;;
78740;SDS011;68062;48.726;9.370;2023-12-07T11:11:27;14.83;;;10.83;;
78740;SDS011;68062;48.726;9.370;2023-12-07T11:13:59;13.77;;;10.83;;
78740;SDS011;68062;48.726;9.370;2023-12-07T11:16:31;13.10;;;10.70;;
78740;SDS011;68062;48.726;9.370;2023-12-07T11:19:00;14.90;;;11.80;;
78740;SDS011;68062;48.726;9.370;2023-12-07T11:21:30;13.23;;;10.83;;
78740;SDS011;68062;48.726;9.370;2023-12-07T11:23:59;14.40;;;11.23;;
78740;SDS011;68062;48.726;9.370;2023-12-07T11:26:27;13.47;;;11.63;;
78740;SDS011;68062;48.726;9.370;2023-12-07T11:28:56;15.17;;;12.13;;
78740;SDS011;68062;48.726;9.370;2023-12-07T11:31:24;13.70;;;10.27;;
78740;SDS011;68062;48.726;9.370;2023-12-07T11:33:55;11.87;;;10.63;;
78740;SDS011;68062;48.726;9.370;2023-12-07T11:36:23;14.20;;;11.50;;
78740;SDS011;68062;48.726;9.370;2023-12-07T11:41:55;13.60;;;10.97;;
78740;SDS011;68062;48.726;9.370;2023-12-07T11:44:36;13.30;;;8.40;;
78740;SDS011;68062;48.726;9.370;2023-12-07T11:47:05;10.87;;;6.93;;
78740;SDS011;68062;48.726;9.370;2023-12-07T11:49:33;7.43;;;5.63;;
78740;SDS011;68062;48.726;9.370;2023-12-07T11:52:12;9.80;;;5.80;;
78740;SDS011;68062;48.726;9.370;2023-12-07T11:54:46;8.47;;;7.33;;
78740;SDS011;68062;48.726;9.370;2023-12-07T11:57:15;7.00;;;5.70;;
78740;SDS011;68062;48.726;9.370;2023-12-07T11:59:44;9.27;;;6.53;;
78740;SDS011;68062;48.726;9.370;2023-12-07T12:02:14;7.30;;;6.17;;
78740;SDS011;68062;48.726;9.370;2023-12-07T12:04:42;7.13;;;5.40;;
78740;SDS011;68062;48.726;9.370;2023-12-07T12:07:10;5.93;;;4.80;;
78740;SDS011;68062;48.726;9.370;2023-12-07T12:09:39;8.90;;;6.10;;
78740;SDS011;68062;48.726;9.370;2023-12-07T12:12:08;7.63;;;5.77;;
78740;SDS011;68062;48.726;9.370;2023-12-07T12:14:36;6.77;;;5.53;;
78740;SDS011;68062;48.726;9.370;2023-12-07T12:17:04;9.13;;;5.40;;
78740;SDS011;68062;48.726;9.370;2023-12-07T12:19:32;8.60;;;5.00;;
78740;SDS011;68062;48.726;9.370;2023-12-07T12:22:03;7.60;;;5.20;;
78740;SDS011;68062;48.726;9.370;2023-12-07T12:24:34;6.43;;;4.97;;
78740;SDS011;68062;48.726;9.370;2023-12-07T12:27:03;5.30;;;5.00;;
78740;SDS011;68062;48.726;9.370;2023-12-07T12:29:33;8.27;;;5.50;;
78740;SDS011;68062;48.726;9.370;2023-12-07T12:32:02;6.90;;;5.23;;
78740;SDS011;68062;48.726;9.370;2023-12-07T12:34:32;5.60;;;4.87;;
78740;SDS011;68062;48.726;9.370;2023-12-07T12:37:01;4.70;;;4.40;;
78740;SDS011;68062;48.726;9.370;2023-12-07T12:39:32;11.10;;;6.30;;
78740;SDS011;68062;48.726;9.370;2023-12-07T12:42:02;5.50;;;5.20;;
78740;SDS011;68062;48.726;9.370;2023-12-07T12:44:32;6.30;;;5.70;;
78740;SDS011;68062;48.726;9.370;2023-12-07T12:47:04;8.00;;;5.60;;
78740;SDS011;68062;48.726;9.370;2023-12-07T12:49:35;6.73;;;5.73;;
78740;SDS011;68062;48.726;9.370;2023-12-07T12:52:04;7.07;;;5.07;;
78740;SDS011;68062;48.726;9.370;2023-12-07T12:54:38;7.40;;;5.70;;
78740;SDS011;68062;48.726;9.370;2023-12-07T12:57:06;6.50;;;6.10;;
78740;SDS011;68062;48.726;9.370;2023-12-07T12:59:36;7.67;;;5.70;;
78740;SDS011;68062;48.726;9.370;2023-12-07T13:02:04;8.50;;;5.13;;
78740;SDS011;68062;48.726;9.370;2023-12-07T13:04:33;5.23;;;4.80;;
78740;SDS011;68062;48.726;9.370;2023-12-07T13:07:03;7.57;;;5.20;;
78740;SDS011;68062;48.726;9.370;2023-12-07T13:09:32;4.60;;;4.30;;
78740;SDS011;68062;48.726;9.370;2023-12-07T13:12:00;4.60;;;3.37;;
78740;SDS011;68062;48.726;9.370;2023-12-07T13:14:32;4.57;;;3.63;;
78740;SDS011;68062;48.726;9.370;2023-12-07T13:17:04;4.10;;;3.20;;
78740;SDS011;68062;48.726;9.370;2023-12-07T13:19:33;3.47;;;2.70;;
78740;SDS011;68062;48.726;9.370;2023-12-07T13:22:02;3.53;;;2.40;;
78740;SDS011;68062;48.726;9.370;2023-12-07T13:24:31;4.83;;;2.37;;
78740;SDS011;68062;48.726;9.370;2023-12-07T13:26:59;2.37;;;2.00;;
78740;SDS011;68062;48.726;9.370;2023-12-07T13:29:27;4.90;;;2.73;;
78740;SDS011;68062;48.726;9.370;2023-12-07T13:32:03;2.33;;;2.13;;
78740;SDS011;68062;48.726;9.370;2023-12-07T13:34:32;2.80;;;2.43;;
78740;SDS011;68062;48.726;9.370;2023-12-07T13:37:01;3.20;;;2.17;;
78740;SDS011;68062;48.726;9.370;2023-12-07T13:39:29;4.60;;;2.37;;
78740;SDS011;68062;48.726;9.370;2023-12-07T13:41:58;2.93;;;2.20;;
78740;SDS011;68062;48.726;9.370;2023-12-07T13:44:30;3.43;;;2.63;;
78740;SDS011;68062;48.726;9.370;2023-12-07T13:46:59;3.70;;;2.83;;
78740;SDS011;68062;48.726;9.370;2023-12-07T13:49:29;5.70;;;2.50;;
78740;SDS011;68062;48.726;9.370;2023-12-07T13:52:00;7.20;;;3.40;;
78740;SDS011;68062;48.726;9.370;2023-12-07T13:54:33;6.03;;;3.30;;
78740;SDS011;68062;48.726;9.370;2023-12-07T13:57:19;5.77;;;2.73;;
78740;SDS011;68062;48.726;9.370;2023-12-07T13:59:47;5.57;;;2.83;;
78740;SDS011;68062;48.726;9.370;2023-12-07T14:02:17;5.50;;;2.60;;
78740;SDS011;68062;48.726;9.370;2023-12-07T14:04:46;3.83;;;2.20;;
78740;SDS011;68062;48.726;9.370;2023-12-07T14:07:17;4.33;;;2.37;;
78740;SDS011;68062;48.726;9.370;2023-12-07T14:09:47;3.67;;;2.60;;
78740;SDS011;68062;48.726;9.370;2023-12-07T14:12:24;4.23;;;2.20;;
78740;SDS011;68062;48.726;9.370;2023-12-07T14:14:53;2.93;;;2.10;;
78740;SDS011;68062;48.726;9.370;2023-12-07T14:17:22;3.63;;;2.00;;
78740;SDS011;68062;48.726;9.370;2023-12-07T14:19:54;2.47;;;2.30;;
78740;SDS011;68062;48.726;9.370;2023-12-07T14:22:43;2.20;;;2.00;;
78740;SDS011;68062;48.726;9.370;2023-12-07T14:25:12;4.53;;;3.20;;
78740;SDS011;68062;48.726;9.370;2023-12-07T14:27:40;6.10;;;2.73;;
78740;SDS011;68062;48.726;9.370;2023-12-07T14:30:08;3.20;;;3.00;;
78740;SDS011;68062;48.726;9.370;2023-12-07T14:32:37;3.00;;;2.40;;
78740;SDS011;68062;48.726;9.370;2023-12-07T14:35:09;2.27;;;2.07;;
78740;SDS011;68062;48.726;9.370;2023-12-07T14:37:39;4.60;;;2.70;;
78740;SDS011;68062;48.726;9.370;2023-12-07T14:40:07;4.93;;;2.87;;
78740;SDS011;68062;48.726;9.370;2023-12-07T14:42:36;8.20;;;2.73;;
78740;SDS011;68062;48.726;9.370;2023-12-07T14:45:04;4.87;;;3.07;;